sensor_id;sensor_type;location;lat;lon;timestamp;temperature;humidity
22842;DHT22;11587;47.064;15.444;2023-02-01T00:00:11;1.20;99.90
22842;DHT22;11587;47.064;15.444;2023-02-01T00:02:37;1.20;99.90
22842;DHT22;11587;47.064;15.444;2023-02-01T00:05:08;1.10;99.90
22842;DHT22;11587;47.064;15.444;2023-02-01T00:07:35;1.10;99.90
22842;DHT22;11587;47.064;15.444;2023-02-01T00:10:00;1.10;99.90
22842;DHT22;11587;47.064;15.444;2023-02-01T00:12:26;1.20;99.90
22842;DHT22;11587;47.064;15.444;2023-02-01T00:14:52;1.30;99.90
22842;DHT22;11587;47.064;15.444;2023-02-01T00:17:17;1.20;99.90
22842;DHT22;11587;47.064;15.444;2023-02-01T00:19:43;1.10;99.90
22842;DHT22;11587;47.064;15.444;2023-02-01T00:22:09;1.20;99.90
22842;DHT22;11587;47.064;15.444;2023-02-01T00:24:35;1.20;99.90
22842;DHT22;11587;47.064;15.444;2023-02-01T00:27:00;1.20;99.90
22842;DHT22;11587;47.064;15.444;2023-02-01T00:29:26;1.40;99.90
22842;DHT22;11587;47.064;15.444;2023-02-01T00:31:52;1.20;99.90
22842;DHT22;11587;47.064;15.444;2023-02-01T00:34:18;1.20;99.90
22842;DHT22;11587;47.064;15.444;2023-02-01T00:36:44;1.30;99.90
22842;DHT22;11587;47.064;15.444;2023-02-01T00:39:10;1.20;99.90
22842;DHT22;11587;47.064;15.444;2023-02-01T00:41:37;1.40;99.90
22842;DHT22;11587;47.064;15.444;2023-02-01T00:44:03;1.20;99.90
22842;DHT22;11587;47.064;15.444;2023-02-01T00:46:29;1.30;99.90
22842;DHT22;11587;47.064;15.444;2023-02-01T00:48:55;1.20;99.90
22842;DHT22;11587;47.064;15.444;2023-02-01T00:51:23;1.20;99.90
22842;DHT22;11587;47.064;15.444;2023-02-01T00:53:50;1.00;99.90
22842;DHT22;11587;47.064;15.444;2023-02-01T00:56:16;1.20;99.90
22842;DHT22;11587;47.064;15.444;2023-02-01T00:58:42;1.10;99.90
22842;DHT22;11587;47.064;15.444;2023-02-01T01:01:13;1.30;99.90
22842;DHT22;11587;47.064;15.444;2023-02-01T01:03:45;1.20;99.90
22842;DHT22;11587;47.064;15.444;2023-02-01T01:06:16;1.20;99.90
22842;DHT22;11587;47.064;15.444;2023-02-01T01:08:43;1.20;99.90
22842;DHT22;11587;47.064;15.444;2023-02-01T01:11:11;1.20;99.90
22842;DHT22;11587;47.064;15.444;2023-02-01T01:13:38;1.10;99.90
22842;DHT22;11587;47.064;15.444;2023-02-01T01:16:05;1.20;99.90
22842;DHT22;11587;47.064;15.444;2023-02-01T01:18:32;1.20;99.90
22842;DHT22;11587;47.064;15.444;2023-02-01T01:20:58;1.30;99.90
22842;DHT22;11587;47.064;15.444;2023-02-01T01:23:24;1.20;99.90
22842;DHT22;11587;47.064;15.444;2023-02-01T01:25:50;1.10;99.90
22842;DHT22;11587;47.064;15.444;2023-02-01T01:28:16;1.10;99.90
22842;DHT22;11587;47.064;15.444;2023-02-01T01:30:41;1.20;99.90
22842;DHT22;11587;47.064;15.444;2023-02-01T01:33:10;1.20;99.90
22842;DHT22;11587;47.064;15.444;2023-02-01T01:35:35;1.10;99.90
22842;DHT22;11587;47.064;15.444;2023-02-01T01:38:02;1.10;99.90
22842;DHT22;11587;47.064;15.444;2023-02-01T01:40:28;1.00;99.90
22842;DHT22;11587;47.064;15.444;2023-02-01T01:42:55;1.00;99.90
22842;DHT22;11587;47.064;15.444;2023-02-01T01:45:32;0.90;99.90
22842;DHT22;11587;47.064;15.444;2023-02-01T01:48:07;0.90;99.90
22842;DHT22;11587;47.064;15.444;2023-02-01T01:50:44;1.00;99.90
22842;DHT22;11587;47.064;15.444;2023-02-01T01:53:16;0.90;99.90
22842;DHT22;11587;47.064;15.444;2023-02-01T01:55:45;0.90;99.90
22842;DHT22;11587;47.064;15.444;2023-02-01T01:58:15;0.90;99.90
22842;DHT22;11587;47.064;15.444;2023-02-01T02:00:42;1.00;99.90
22842;DHT22;11587;47.064;15.444;2023-02-01T02:03:17;1.00;99.90
22842;DHT22;11587;47.064;15.444;2023-02-01T02:05:44;1.00;99.90
22842;DHT22;11587;47.064;15.444;2023-02-01T02:08:11;1.00;99.90
22842;DHT22;11587;47.064;15.444;2023-02-01T02:10:37;0.90;99.90
22842;DHT22;11587;47.064;15.444;2023-02-01T02:13:22;0.90;99.90
22842;DHT22;11587;47.064;15.444;2023-02-01T02:16:26;0.90;99.90
22842;DHT22;11587;47.064;15.444;2023-02-01T02:30:48;0.90;99.90
22842;DHT22;11587;47.064;15.444;2023-02-01T02:45:20;0.60;99.90
22842;DHT22;11587;47.064;15.444;2023-02-01T02:48:23;0.50;99.90
22842;DHT22;11587;47.064;15.444;2023-02-01T02:56:49;0.70;99.90
22842;DHT22;11587;47.064;15.444;2023-02-01T02:59:35;0.70;99.90
22842;DHT22;11587;47.064;15.444;2023-02-01T03:02:20;0.60;99.90
22842;DHT22;11587;47.064;15.444;2023-02-01T03:05:05;0.70;99.90
22842;DHT22;11587;47.064;15.444;2023-02-01T03:08:00;0.90;99.90
22842;DHT22;11587;47.064;15.444;2023-02-01T03:10:34;0.90;99.90
22842;DHT22;11587;47.064;15.444;2023-02-01T03:13:35;0.90;99.90
22842;DHT22;11587;47.064;15.444;2023-02-01T03:20:52;0.90;99.90
22842;DHT22;11587;47.064;15.444;2023-02-01T03:23:21;0.80;99.90
22842;DHT22;11587;47.064;15.444;2023-02-01T03:25:50;0.80;99.90
22842;DHT22;11587;47.064;15.444;2023-02-01T03:28:18;0.80;99.90
22842;DHT22;11587;47.064;15.444;2023-02-01T03:30:48;0.80;99.90
22842;DHT22;11587;47.064;15.444;2023-02-01T03:33:21;0.70;99.90
22842;DHT22;11587;47.064;15.444;2023-02-01T03:36:00;0.70;99.90
22842;DHT22;11587;47.064;15.444;2023-02-01T03:38:40;0.80;99.90
22842;DHT22;11587;47.064;15.444;2023-02-01T03:41:58;0.90;99.90
22842;DHT22;11587;47.064;15.444;2023-02-01T03:44:16;1.00;99.90
22842;DHT22;11587;47.064;15.444;2023-02-01T03:46:52;1.00;99.90
22842;DHT22;11587;47.064;15.444;2023-02-01T03:52:06;1.10;99.90
22842;DHT22;11587;47.064;15.444;2023-02-01T03:54:35;1.10;99.90
22842;DHT22;11587;47.064;15.444;2023-02-01T03:57:05;1.20;99.90
22842;DHT22;11587;47.064;15.444;2023-02-01T03:59:32;1.10;99.90
22842;DHT22;11587;47.064;15.444;2023-02-01T04:01:57;1.00;99.90
22842;DHT22;11587;47.064;15.444;2023-02-01T04:04:23;1.00;99.90
22842;DHT22;11587;47.064;15.444;2023-02-01T04:06:49;0.80;99.90
22842;DHT22;11587;47.064;15.444;2023-02-01T04:09:16;0.80;99.90
22842;DHT22;11587;47.064;15.444;2023-02-01T04:11:42;0.80;99.90
22842;DHT22;11587;47.064;15.444;2023-02-01T04:14:08;0.80;99.90
22842;DHT22;11587;47.064;15.444;2023-02-01T04:16:34;0.70;99.90
22842;DHT22;11587;47.064;15.444;2023-02-01T04:19:00;0.60;99.90
22842;DHT22;11587;47.064;15.444;2023-02-01T04:21:26;0.50;99.90
22842;DHT22;11587;47.064;15.444;2023-02-01T04:23:53;0.60;99.90
22842;DHT22;11587;47.064;15.444;2023-02-01T04:26:19;0.60;99.90
22842;DHT22;11587;47.064;15.444;2023-02-01T04:28:45;0.70;99.90
22842;DHT22;11587;47.064;15.444;2023-02-01T04:31:14;0.70;99.90
22842;DHT22;11587;47.064;15.444;2023-02-01T04:33:40;0.60;99.90
22842;DHT22;11587;47.064;15.444;2023-02-01T04:36:05;0.60;99.90
22842;DHT22;11587;47.064;15.444;2023-02-01T04:38:31;0.60;99.90
22842;DHT22;11587;47.064;15.444;2023-02-01T04:40:58;0.50;99.90
22842;DHT22;11587;47.064;15.444;2023-02-01T04:43:24;0.50;99.90
22842;DHT22;11587;47.064;15.444;2023-02-01T04:45:51;0.60;99.90
22842;DHT22;11587;47.064;15.444;2023-02-01T04:48:20;0.50;99.90
22842;DHT22;11587;47.064;15.444;2023-02-01T04:50:46;0.50;99.90
22842;DHT22;11587;47.064;15.444;2023-02-01T04:53:17;0.40;99.90
22842;DHT22;11587;47.064;15.444;2023-02-01T04:55:43;0.40;99.90
22842;DHT22;11587;47.064;15.444;2023-02-01T04:58:09;0.40;99.90
22842;DHT22;11587;47.064;15.444;2023-02-01T05:00:35;0.50;99.90
22842;DHT22;11587;47.064;15.444;2023-02-01T05:03:01;0.30;99.90
22842;DHT22;11587;47.064;15.444;2023-02-01T05:05:27;0.30;99.90
22842;DHT22;11587;47.064;15.444;2023-02-01T05:07:53;0.60;99.90
22842;DHT22;11587;47.064;15.444;2023-02-01T05:10:20;0.60;99.90
22842;DHT22;11587;47.064;15.444;2023-02-01T05:12:45;0.40;99.90
22842;DHT22;11587;47.064;15.444;2023-02-01T05:15:31;0.50;99.90
22842;DHT22;11587;47.064;15.444;2023-02-01T05:17:57;0.50;99.90
22842;DHT22;11587;47.064;15.444;2023-02-01T05:20:23;0.60;99.90
22842;DHT22;11587;47.064;15.444;2023-02-01T05:22:49;0.50;99.90
22842;DHT22;11587;47.064;15.444;2023-02-01T05:25:15;0.40;99.90
22842;DHT22;11587;47.064;15.444;2023-02-01T05:27:40;0.40;99.90
22842;DHT22;11587;47.064;15.444;2023-02-01T05:30:08;0.40;99.90
22842;DHT22;11587;47.064;15.444;2023-02-01T05:32:34;0.40;99.90
22842;DHT22;11587;47.064;15.444;2023-02-01T05:35:00;0.50;99.90
22842;DHT22;11587;47.064;15.444;2023-02-01T05:37:26;0.50;99.90
22842;DHT22;11587;47.064;15.444;2023-02-01T05:39:51;0.40;99.90
22842;DHT22;11587;47.064;15.444;2023-02-01T05:42:17;0.40;99.90
22842;DHT22;11587;47.064;15.444;2023-02-01T05:44:43;0.40;99.90
22842;DHT22;11587;47.064;15.444;2023-02-01T05:47:09;0.50;99.90
22842;DHT22;11587;47.064;15.444;2023-02-01T05:49:35;0.40;99.90
22842;DHT22;11587;47.064;15.444;2023-02-01T05:52:01;0.50;99.90
22842;DHT22;11587;47.064;15.444;2023-02-01T05:54:26;0.50;99.90
22842;DHT22;11587;47.064;15.444;2023-02-01T05:56:52;0.40;99.90
22842;DHT22;11587;47.064;15.444;2023-02-01T05:59:18;0.40;99.90
22842;DHT22;11587;47.064;15.444;2023-02-01T06:01:43;0.30;99.90
22842;DHT22;11587;47.064;15.444;2023-02-01T06:04:09;0.30;99.90
22842;DHT22;11587;47.064;15.444;2023-02-01T06:06:35;0.30;99.90
22842;DHT22;11587;47.064;15.444;2023-02-01T06:09:02;0.40;99.90
22842;DHT22;11587;47.064;15.444;2023-02-01T06:11:28;0.50;99.90
22842;DHT22;11587;47.064;15.444;2023-02-01T06:13:54;0.40;99.90
22842;DHT22;11587;47.064;15.444;2023-02-01T06:16:21;0.30;99.90
22842;DHT22;11587;47.064;15.444;2023-02-01T06:18:47;0.30;99.90
22842;DHT22;11587;47.064;15.444;2023-02-01T06:21:13;0.40;99.90
22842;DHT22;11587;47.064;15.444;2023-02-01T06:23:52;0.40;99.90
22842;DHT22;11587;47.064;15.444;2023-02-01T06:26:18;0.40;99.90
22842;DHT22;11587;47.064;15.444;2023-02-01T06:28:44;0.30;99.90
22842;DHT22;11587;47.064;15.444;2023-02-01T06:31:10;0.30;99.90
22842;DHT22;11587;47.064;15.444;2023-02-01T06:33:37;0.40;99.90
22842;DHT22;11587;47.064;15.444;2023-02-01T06:36:05;0.40;99.90
22842;DHT22;11587;47.064;15.444;2023-02-01T06:38:31;0.40;99.90
22842;DHT22;11587;47.064;15.444;2023-02-01T06:41:00;0.50;99.90
22842;DHT22;11587;47.064;15.444;2023-02-01T06:43:27;0.60;99.90
22842;DHT22;11587;47.064;15.444;2023-02-01T06:45:53;0.60;99.90
22842;DHT22;11587;47.064;15.444;2023-02-01T06:48:19;0.60;99.90
22842;DHT22;11587;47.064;15.444;2023-02-01T06:50:45;0.50;99.90
22842;DHT22;11587;47.064;15.444;2023-02-01T06:53:10;0.40;99.90
22842;DHT22;11587;47.064;15.444;2023-02-01T06:55:36;0.50;99.90
22842;DHT22;11587;47.064;15.444;2023-02-01T06:58:02;0.50;99.90
22842;DHT22;11587;47.064;15.444;2023-02-01T07:00:28;0.50;99.90
22842;DHT22;11587;47.064;15.444;2023-02-01T07:02:55;0.50;99.90
22842;DHT22;11587;47.064;15.444;2023-02-01T07:05:22;0.60;99.90
22842;DHT22;11587;47.064;15.444;2023-02-01T07:07:48;0.70;99.90
22842;DHT22;11587;47.064;15.444;2023-02-01T07:10:14;0.80;99.90
22842;DHT22;11587;47.064;15.444;2023-02-01T07:12:39;0.90;99.90
22842;DHT22;11587;47.064;15.444;2023-02-01T07:15:06;0.90;99.90
22842;DHT22;11587;47.064;15.444;2023-02-01T07:17:32;0.80;99.90
22842;DHT22;11587;47.064;15.444;2023-02-01T07:19:58;0.80;99.90
22842;DHT22;11587;47.064;15.444;2023-02-01T07:22:27;0.80;99.90
22842;DHT22;11587;47.064;15.444;2023-02-01T07:24:53;0.90;99.90
22842;DHT22;11587;47.064;15.444;2023-02-01T07:27:18;0.90;99.90
22842;DHT22;11587;47.064;15.444;2023-02-01T07:29:45;1.10;99.90
22842;DHT22;11587;47.064;15.444;2023-02-01T07:32:11;1.10;99.90
22842;DHT22;11587;47.064;15.444;2023-02-01T07:34:36;1.10;99.90
22842;DHT22;11587;47.064;15.444;2023-02-01T07:37:02;1.10;99.90
22842;DHT22;11587;47.064;15.444;2023-02-01T07:39:28;1.10;99.90
22842;DHT22;11587;47.064;15.444;2023-02-01T07:41:54;1.20;99.90
22842;DHT22;11587;47.064;15.444;2023-02-01T07:44:20;1.20;99.90
22842;DHT22;11587;47.064;15.444;2023-02-01T07:46:49;1.20;99.90
22842;DHT22;11587;47.064;15.444;2023-02-01T07:49:15;1.30;99.90
22842;DHT22;11587;47.064;15.444;2023-02-01T07:51:40;1.40;99.90
22842;DHT22;11587;47.064;15.444;2023-02-01T07:54:06;1.30;99.90
22842;DHT22;11587;47.064;15.444;2023-02-01T07:56:32;1.30;99.90
22842;DHT22;11587;47.064;15.444;2023-02-01T07:58:58;1.50;99.90
22842;DHT22;11587;47.064;15.444;2023-02-01T08:01:27;1.50;99.90
22842;DHT22;11587;47.064;15.444;2023-02-01T08:03:56;1.60;99.90
22842;DHT22;11587;47.064;15.444;2023-02-01T08:06:23;1.70;99.90
22842;DHT22;11587;47.064;15.444;2023-02-01T08:08:49;1.80;99.90
22842;DHT22;11587;47.064;15.444;2023-02-01T08:11:16;1.90;99.90
22842;DHT22;11587;47.064;15.444;2023-02-01T08:13:42;2.10;99.90
22842;DHT22;11587;47.064;15.444;2023-02-01T08:16:10;2.00;99.90
22842;DHT22;11587;47.064;15.444;2023-02-01T08:18:37;2.10;99.90
22842;DHT22;11587;47.064;15.444;2023-02-01T08:21:12;2.30;99.90
22842;DHT22;11587;47.064;15.444;2023-02-01T08:23:40;2.30;99.90
22842;DHT22;11587;47.064;15.444;2023-02-01T08:26:12;2.30;99.90
22842;DHT22;11587;47.064;15.444;2023-02-01T08:28:40;2.40;99.90
22842;DHT22;11587;47.064;15.444;2023-02-01T08:31:08;2.50;99.90
22842;DHT22;11587;47.064;15.444;2023-02-01T08:33:35;2.50;99.90
22842;DHT22;11587;47.064;15.444;2023-02-01T08:36:03;2.50;99.90
22842;DHT22;11587;47.064;15.444;2023-02-01T08:38:29;2.60;99.90
22842;DHT22;11587;47.064;15.444;2023-02-01T08:40:55;2.70;99.90
22842;DHT22;11587;47.064;15.444;2023-02-01T08:43:21;2.70;99.90
22842;DHT22;11587;47.064;15.444;2023-02-01T08:45:46;2.70;99.90
22842;DHT22;11587;47.064;15.444;2023-02-01T08:48:12;2.70;99.90
22842;DHT22;11587;47.064;15.444;2023-02-01T08:50:38;2.80;99.90
22842;DHT22;11587;47.064;15.444;2023-02-01T08:53:03;2.80;99.90
22842;DHT22;11587;47.064;15.444;2023-02-01T08:55:29;2.80;99.90
22842;DHT22;11587;47.064;15.444;2023-02-01T08:57:55;3.00;99.90
22842;DHT22;11587;47.064;15.444;2023-02-01T09:00:21;3.00;99.90
22842;DHT22;11587;47.064;15.444;2023-02-01T09:02:47;3.00;99.90
22842;DHT22;11587;47.064;15.444;2023-02-01T09:05:13;3.10;99.90
22842;DHT22;11587;47.064;15.444;2023-02-01T09:07:41;3.20;99.90
22842;DHT22;11587;47.064;15.444;2023-02-01T09:10:08;3.20;99.90
22842;DHT22;11587;47.064;15.444;2023-02-01T09:12:35;3.20;99.90
22842;DHT22;11587;47.064;15.444;2023-02-01T09:15:01;3.30;99.90
22842;DHT22;11587;47.064;15.444;2023-02-01T09:17:28;3.30;99.90
22842;DHT22;11587;47.064;15.444;2023-02-01T09:19:54;3.40;99.90
22842;DHT22;11587;47.064;15.444;2023-02-01T09:22:20;3.40;99.90
22842;DHT22;11587;47.064;15.444;2023-02-01T09:24:46;3.60;99.90
22842;DHT22;11587;47.064;15.444;2023-02-01T09:27:11;3.60;99.90
22842;DHT22;11587;47.064;15.444;2023-02-01T09:29:37;3.70;99.90
22842;DHT22;11587;47.064;15.444;2023-02-01T09:32:03;3.70;99.90
22842;DHT22;11587;47.064;15.444;2023-02-01T09:34:29;3.80;99.90
22842;DHT22;11587;47.064;15.444;2023-02-01T09:36:55;3.90;99.90
22842;DHT22;11587;47.064;15.444;2023-02-01T09:39:20;3.80;99.90
22842;DHT22;11587;47.064;15.444;2023-02-01T09:47:23;3.90;99.90
22842;DHT22;11587;47.064;15.444;2023-02-01T09:50:00;4.00;99.90
22842;DHT22;11587;47.064;15.444;2023-02-01T09:52:52;4.10;99.90
22842;DHT22;11587;47.064;15.444;2023-02-01T09:58:07;4.40;99.90
22842;DHT22;11587;47.064;15.444;2023-02-01T10:00:39;4.40;99.90
22842;DHT22;11587;47.064;15.444;2023-02-01T10:03:05;4.70;99.90
22842;DHT22;11587;47.064;15.444;2023-02-01T10:10:57;5.40;99.90
22842;DHT22;11587;47.064;15.444;2023-02-01T10:13:50;5.60;99.90
22842;DHT22;11587;47.064;15.444;2023-02-01T10:16:48;5.70;99.90
22842;DHT22;11587;47.064;15.444;2023-02-01T10:25:23;5.80;99.90
22842;DHT22;11587;47.064;15.444;2023-02-01T10:27:51;5.90;99.90
22842;DHT22;11587;47.064;15.444;2023-02-01T10:30:23;5.90;99.90
22842;DHT22;11587;47.064;15.444;2023-02-01T10:32:54;5.80;99.90
22842;DHT22;11587;47.064;15.444;2023-02-01T10:35:34;5.80;99.90
22842;DHT22;11587;47.064;15.444;2023-02-01T10:38:02;5.80;99.90
22842;DHT22;11587;47.064;15.444;2023-02-01T10:40:31;5.90;99.90
22842;DHT22;11587;47.064;15.444;2023-02-01T10:43:01;5.80;99.90
22842;DHT22;11587;47.064;15.444;2023-02-01T10:45:29;5.90;99.90
22842;DHT22;11587;47.064;15.444;2023-02-01T10:47:57;6.10;99.90
22842;DHT22;11587;47.064;15.444;2023-02-01T10:50:35;6.30;99.90
22842;DHT22;11587;47.064;15.444;2023-02-01T10:56:12;6.60;99.60
22842;DHT22;11587;47.064;15.444;2023-02-01T10:58:46;7.00;99.40
22842;DHT22;11587;47.064;15.444;2023-02-01T11:01:19;7.40;98.90
22842;DHT22;11587;47.064;15.444;2023-02-01T11:04:07;8.80;97.60
22842;DHT22;11587;47.064;15.444;2023-02-01T11:06:44;9.70;96.80
22842;DHT22;11587;47.064;15.444;2023-02-01T11:09:21;10.50;94.40
22842;DHT22;11587;47.064;15.444;2023-02-01T11:16:59;12.90;90.60
22842;DHT22;11587;47.064;15.444;2023-02-01T11:19:28;14.10;86.60
22842;DHT22;11587;47.064;15.444;2023-02-01T11:21:57;14.20;90.00
22842;DHT22;11587;47.064;15.444;2023-02-01T11:24:27;13.70;88.00
22842;DHT22;11587;47.064;15.444;2023-02-01T11:26:59;13.00;87.80
22842;DHT22;11587;47.064;15.444;2023-02-01T11:29:26;11.90;90.70
22842;DHT22;11587;47.064;15.444;2023-02-01T11:31:58;11.40;92.30
22842;DHT22;11587;47.064;15.444;2023-02-01T11:34:28;11.90;91.80
22842;DHT22;11587;47.064;15.444;2023-02-01T11:36:59;12.90;91.20
22842;DHT22;11587;47.064;15.444;2023-02-01T11:39:30;13.80;88.20
22842;DHT22;11587;47.064;15.444;2023-02-01T11:42:05;14.70;89.10
22842;DHT22;11587;47.064;15.444;2023-02-01T11:44:39;15.40;88.20
22842;DHT22;11587;47.064;15.444;2023-02-01T11:47:25;15.50;83.70
22842;DHT22;11587;47.064;15.444;2023-02-01T11:49:56;16.10;81.20
22842;DHT22;11587;47.064;15.444;2023-02-01T11:55:10;15.60;83.20
22842;DHT22;11587;47.064;15.444;2023-02-01T12:08:24;13.60;74.40
22842;DHT22;11587;47.064;15.444;2023-02-01T12:13:42;15.40;69.80
22842;DHT22;11587;47.064;15.444;2023-02-01T12:16:37;14.80;70.20
22842;DHT22;11587;47.064;15.444;2023-02-01T12:19:21;15.00;71.70
22842;DHT22;11587;47.064;15.444;2023-02-01T12:22:20;14.70;65.70
22842;DHT22;11587;47.064;15.444;2023-02-01T12:33:22;13.80;68.00
22842;DHT22;11587;47.064;15.444;2023-02-01T12:36:28;15.20;65.40
22842;DHT22;11587;47.064;15.444;2023-02-01T12:39:03;15.10;62.70
22842;DHT22;11587;47.064;15.444;2023-02-01T12:41:50;15.40;66.30
22842;DHT22;11587;47.064;15.444;2023-02-01T12:44:32;15.50;64.30
22842;DHT22;11587;47.064;15.444;2023-02-01T12:52:56;14.10;66.10
22842;DHT22;11587;47.064;15.444;2023-02-01T12:55:36;13.50;65.20
22842;DHT22;11587;47.064;15.444;2023-02-01T13:00:59;14.20;65.40
22842;DHT22;11587;47.064;15.444;2023-02-01T13:03:39;13.80;69.10
22842;DHT22;11587;47.064;15.444;2023-02-01T13:06:19;15.00;67.20
22842;DHT22;11587;47.064;15.444;2023-02-01T13:11:43;15.30;64.60
22842;DHT22;11587;47.064;15.444;2023-02-01T13:14:30;15.90;65.50
22842;DHT22;11587;47.064;15.444;2023-02-01T13:17:27;15.10;63.60
22842;DHT22;11587;47.064;15.444;2023-02-01T13:20:02;14.30;65.30
22842;DHT22;11587;47.064;15.444;2023-02-01T13:22:37;14.10;66.40
22842;DHT22;11587;47.064;15.444;2023-02-01T13:25:14;13.60;66.90
22842;DHT22;11587;47.064;15.444;2023-02-01T13:27:41;13.30;69.80
22842;DHT22;11587;47.064;15.444;2023-02-01T13:30:20;13.30;71.10
22842;DHT22;11587;47.064;15.444;2023-02-01T13:39:32;12.20;70.20
22842;DHT22;11587;47.064;15.444;2023-02-01T13:42:05;12.10;72.60
22842;DHT22;11587;47.064;15.444;2023-02-01T13:44:42;11.80;73.40
22842;DHT22;11587;47.064;15.444;2023-02-01T13:47:31;11.60;71.90
22842;DHT22;11587;47.064;15.444;2023-02-01T13:50:00;11.40;75.40
22842;DHT22;11587;47.064;15.444;2023-02-01T13:52:44;11.30;75.80
22842;DHT22;11587;47.064;15.444;2023-02-01T13:57:49;11.20;78.40
22842;DHT22;11587;47.064;15.444;2023-02-01T14:00:38;11.10;76.60
22842;DHT22;11587;47.064;15.444;2023-02-01T14:13:22;10.60;78.80
22842;DHT22;11587;47.064;15.444;2023-02-01T14:21:27;10.50;81.70
22842;DHT22;11587;47.064;15.444;2023-02-01T14:26:27;10.50;83.30
22842;DHT22;11587;47.064;15.444;2023-02-01T14:42:20;10.20;84.20
22842;DHT22;11587;47.064;15.444;2023-02-01T14:44:48;10.10;87.30
22842;DHT22;11587;47.064;15.444;2023-02-01T14:52:36;9.90;86.90
22842;DHT22;11587;47.064;15.444;2023-02-01T14:55:21;9.80;87.30
22842;DHT22;11587;47.064;15.444;2023-02-01T14:57:50;9.80;87.90
22842;DHT22;11587;47.064;15.444;2023-02-01T15:00:24;9.70;87.70
22842;DHT22;11587;47.064;15.444;2023-02-01T15:02:51;9.70;86.10
22842;DHT22;11587;47.064;15.444;2023-02-01T15:05:32;9.60;86.70
22842;DHT22;11587;47.064;15.444;2023-02-01T15:08:05;9.60;85.70
22842;DHT22;11587;47.064;15.444;2023-02-01T15:10:40;9.60;85.50
22842;DHT22;11587;47.064;15.444;2023-02-01T15:13:23;9.50;85.40
22842;DHT22;11587;47.064;15.444;2023-02-01T15:16:04;9.50;85.60
22842;DHT22;11587;47.064;15.444;2023-02-01T15:18:31;9.50;86.40
22842;DHT22;11587;47.064;15.444;2023-02-01T15:20:59;9.50;86.30
22842;DHT22;11587;47.064;15.444;2023-02-01T15:23:26;9.60;86.90
22842;DHT22;11587;47.064;15.444;2023-02-01T15:25:53;9.60;86.90
22842;DHT22;11587;47.064;15.444;2023-02-01T15:28:19;9.60;86.00
22842;DHT22;11587;47.064;15.444;2023-02-01T15:30:59;9.60;86.00
22842;DHT22;11587;47.064;15.444;2023-02-01T15:33:27;9.40;85.00
22842;DHT22;11587;47.064;15.444;2023-02-01T15:36:18;9.40;85.90
22842;DHT22;11587;47.064;15.444;2023-02-01T15:38:44;9.30;85.00
22842;DHT22;11587;47.064;15.444;2023-02-01T15:41:15;9.10;87.20
22842;DHT22;11587;47.064;15.444;2023-02-01T15:46:30;9.00;86.10
22842;DHT22;11587;47.064;15.444;2023-02-01T15:48:56;9.00;89.50
22842;DHT22;11587;47.064;15.444;2023-02-01T15:51:28;8.90;89.10
22842;DHT22;11587;47.064;15.444;2023-02-01T15:54:00;8.90;87.50
22842;DHT22;11587;47.064;15.444;2023-02-01T15:56:28;8.80;86.20
22842;DHT22;11587;47.064;15.444;2023-02-01T15:59:00;8.80;88.70
22842;DHT22;11587;47.064;15.444;2023-02-01T16:01:26;8.70;86.70
22842;DHT22;11587;47.064;15.444;2023-02-01T16:04:16;8.80;89.30
22842;DHT22;11587;47.064;15.444;2023-02-01T16:07:02;8.60;87.40
22842;DHT22;11587;47.064;15.444;2023-02-01T16:09:56;8.40;88.60
22842;DHT22;11587;47.064;15.444;2023-02-01T16:15:05;8.30;87.10
22842;DHT22;11587;47.064;15.444;2023-02-01T16:17:31;8.40;88.50
22842;DHT22;11587;47.064;15.444;2023-02-01T16:19:57;8.40;90.10
22842;DHT22;11587;47.064;15.444;2023-02-01T16:22:23;8.30;89.60
22842;DHT22;11587;47.064;15.444;2023-02-01T16:24:50;8.30;90.20
22842;DHT22;11587;47.064;15.444;2023-02-01T16:27:16;8.20;88.50
22842;DHT22;11587;47.064;15.444;2023-02-01T16:29:41;8.20;87.70
22842;DHT22;11587;47.064;15.444;2023-02-01T16:32:17;8.20;88.10
22842;DHT22;11587;47.064;15.444;2023-02-01T16:34:45;8.10;88.70
22842;DHT22;11587;47.064;15.444;2023-02-01T16:37:21;8.10;88.10
22842;DHT22;11587;47.064;15.444;2023-02-01T16:39:47;8.10;90.00
22842;DHT22;11587;47.064;15.444;2023-02-01T16:42:14;8.10;89.60
22842;DHT22;11587;47.064;15.444;2023-02-01T16:44:40;8.00;90.10
22842;DHT22;11587;47.064;15.444;2023-02-01T16:47:23;8.00;89.30
22842;DHT22;11587;47.064;15.444;2023-02-01T16:49:49;7.90;88.40
22842;DHT22;11587;47.064;15.444;2023-02-01T16:52:20;8.00;88.50
22842;DHT22;11587;47.064;15.444;2023-02-01T16:54:46;8.00;87.30
22842;DHT22;11587;47.064;15.444;2023-02-01T16:57:14;8.00;90.10
22842;DHT22;11587;47.064;15.444;2023-02-01T16:59:41;7.90;88.50
22842;DHT22;11587;47.064;15.444;2023-02-01T17:02:14;7.90;90.80
22842;DHT22;11587;47.064;15.444;2023-02-01T17:04:40;7.90;88.80
22842;DHT22;11587;47.064;15.444;2023-02-01T17:07:07;7.80;90.00
22842;DHT22;11587;47.064;15.444;2023-02-01T17:09:36;7.80;90.10
22842;DHT22;11587;47.064;15.444;2023-02-01T17:12:03;7.80;88.90
22842;DHT22;11587;47.064;15.444;2023-02-01T17:14:31;7.80;90.00
22842;DHT22;11587;47.064;15.444;2023-02-01T17:16:58;7.80;89.70
22842;DHT22;11587;47.064;15.444;2023-02-01T17:19:24;7.70;90.40
22842;DHT22;11587;47.064;15.444;2023-02-01T17:21:53;7.70;90.40
22842;DHT22;11587;47.064;15.444;2023-02-01T17:24:24;7.60;90.20
22842;DHT22;11587;47.064;15.444;2023-02-01T17:26:50;7.60;90.40
22842;DHT22;11587;47.064;15.444;2023-02-01T17:29:17;7.60;91.10
22842;DHT22;11587;47.064;15.444;2023-02-01T17:31:46;7.50;90.40
22842;DHT22;11587;47.064;15.444;2023-02-01T17:34:13;7.50;90.20
22842;DHT22;11587;47.064;15.444;2023-02-01T17:36:41;7.50;90.90
22842;DHT22;11587;47.064;15.444;2023-02-01T17:39:08;7.50;90.80
22842;DHT22;11587;47.064;15.444;2023-02-01T17:41:35;7.50;91.00
22842;DHT22;11587;47.064;15.444;2023-02-01T17:44:02;7.50;90.50
22842;DHT22;11587;47.064;15.444;2023-02-01T17:46:30;7.50;90.90
22842;DHT22;11587;47.064;15.444;2023-02-01T17:48:56;7.40;90.40
22842;DHT22;11587;47.064;15.444;2023-02-01T17:51:27;7.30;90.60
22842;DHT22;11587;47.064;15.444;2023-02-01T17:53:54;7.30;91.70
22842;DHT22;11587;47.064;15.444;2023-02-01T17:56:22;7.30;91.20
22842;DHT22;11587;47.064;15.444;2023-02-01T17:58:48;7.20;90.80
22842;DHT22;11587;47.064;15.444;2023-02-01T18:01:18;7.20;91.20
22842;DHT22;11587;47.064;15.444;2023-02-01T18:03:44;7.20;91.10
22842;DHT22;11587;47.064;15.444;2023-02-01T18:06:18;7.20;91.90
22842;DHT22;11587;47.064;15.444;2023-02-01T18:08:45;7.20;91.60
22842;DHT22;11587;47.064;15.444;2023-02-01T18:11:17;7.20;91.30
22842;DHT22;11587;47.064;15.444;2023-02-01T18:13:43;7.10;91.90
22842;DHT22;11587;47.064;15.444;2023-02-01T18:16:21;7.00;91.70
22842;DHT22;11587;47.064;15.444;2023-02-01T18:18:48;6.90;92.10
22842;DHT22;11587;47.064;15.444;2023-02-01T18:21:20;7.00;92.00